sensor_id;sensor_type;location;lat;lon;timestamp;P1;durP1;ratioP1;P2;durP2;ratioP2
19095;SDS011;9680;52.520;13.332;2022-10-04T00:01:49;8.57;;;1.63;;
19095;SDS011;9680;52.520;13.332;2022-10-04T00:07:05;11.55;;;1.88;;
19095;SDS011;9680;52.520;13.332;2022-10-04T00:10:01;16.23;;;1.80;;
19095;SDS011;9680;52.520;13.332;2022-10-04T00:12:54;9.33;;;1.80;;
19095;SDS011;9680;52.520;13.332;2022-10-04T00:15:32;11.07;;;2.10;;
19095;SDS011;9680;52.520;13.332;2022-10-04T00:25:49;10.53;;;1.80;;
19095;SDS011;9680;52.520;13.332;2022-10-04T00:30:49;9.40;;;2.00;;
19095;SDS011;9680;52.520;13.332;2022-10-04T00:33:40;8.70;;;1.70;;
19095;SDS011;9680;52.520;13.332;2022-10-04T00:46:50;5.67;;;1.73;;
19095;SDS011;9680;52.520;13.332;2022-10-04T00:49:17;10.17;;;2.23;;
19095;SDS011;9680;52.520;13.332;2022-10-04T00:51:54;10.83;;;1.90;;
19095;SDS011;9680;52.520;13.332;2022-10-04T00:54:35;7.77;;;1.70;;
19095;SDS011;9680;52.520;13.332;2022-10-04T00:57:21;11.53;;;1.70;;
19095;SDS011;9680;52.520;13.332;2022-10-04T00:59:52;6.50;;;1.47;;
19095;SDS011;9680;52.520;13.332;2022-10-04T01:05:20;6.45;;;1.77;;
19095;SDS011;9680;52.520;13.332;2022-10-04T01:13:34;7.65;;;1.77;;
19095;SDS011;9680;52.520;13.332;2022-10-04T01:16:23;8.40;;;1.83;;
19095;SDS011;9680;52.520;13.332;2022-10-04T01:18:51;5.90;;;1.90;;
19095;SDS011;9680;52.520;13.332;2022-10-04T01:31:31;9.90;;;1.90;;
19095;SDS011;9680;52.520;13.332;2022-10-04T01:33:58;8.97;;;2.03;;
19095;SDS011;9680;52.520;13.332;2022-10-04T01:36:25;12.07;;;2.00;;
19095;SDS011;9680;52.520;13.332;2022-10-04T01:38:52;12.97;;;2.30;;
19095;SDS011;9680;52.520;13.332;2022-10-04T01:41:20;8.18;;;2.10;;
19095;SDS011;9680;52.520;13.332;2022-10-04T01:43:59;10.60;;;2.00;;
19095;SDS011;9680;52.520;13.332;2022-10-04T01:46:30;9.83;;;2.20;;
19095;SDS011;9680;52.520;13.332;2022-10-04T01:48:59;6.53;;;2.10;;
19095;SDS011;9680;52.520;13.332;2022-10-04T01:51:41;9.73;;;1.90;;
19095;SDS011;9680;52.520;13.332;2022-10-04T01:54:17;7.57;;;1.90;;
19095;SDS011;9680;52.520;13.332;2022-10-04T01:56:52;9.47;;;1.93;;
19095;SDS011;9680;52.520;13.332;2022-10-04T01:59:28;7.63;;;1.83;;
19095;SDS011;9680;52.520;13.332;2022-10-04T02:02:00;14.20;;;2.30;;
19095;SDS011;9680;52.520;13.332;2022-10-04T02:04:33;10.47;;;1.90;;
19095;SDS011;9680;52.520;13.332;2022-10-04T02:07:02;14.27;;;2.20;;
19095;SDS011;9680;52.520;13.332;2022-10-04T02:09:37;9.77;;;2.10;;
19095;SDS011;9680;52.520;13.332;2022-10-04T02:12:08;10.07;;;2.23;;
19095;SDS011;9680;52.520;13.332;2022-10-04T02:14:38;13.53;;;2.07;;
19095;SDS011;9680;52.520;13.332;2022-10-04T02:17:17;8.67;;;1.93;;
19095;SDS011;9680;52.520;13.332;2022-10-04T02:19:48;10.60;;;1.97;;
19095;SDS011;9680;52.520;13.332;2022-10-04T02:22:14;9.60;;;2.10;;
19095;SDS011;9680;52.520;13.332;2022-10-04T02:24:42;8.23;;;2.17;;
19095;SDS011;9680;52.520;13.332;2022-10-04T02:27:09;10.07;;;1.80;;
19095;SDS011;9680;52.520;13.332;2022-10-04T02:29:35;8.70;;;1.67;;
19095;SDS011;9680;52.520;13.332;2022-10-04T02:32:02;5.23;;;1.47;;
19095;SDS011;9680;52.520;13.332;2022-10-04T02:34:48;5.87;;;1.60;;
19095;SDS011;9680;52.520;13.332;2022-10-04T02:37:14;10.80;;;1.73;;
19095;SDS011;9680;52.520;13.332;2022-10-04T02:39:52;6.67;;;1.70;;
19095;SDS011;9680;52.520;13.332;2022-10-04T02:42:35;4.83;;;1.70;;
19095;SDS011;9680;52.520;13.332;2022-10-04T02:47:36;9.13;;;1.70;;
19095;SDS011;9680;52.520;13.332;2022-10-04T02:50:16;8.23;;;1.90;;
19095;SDS011;9680;52.520;13.332;2022-10-04T02:56:10;6.77;;;1.90;;
19095;SDS011;9680;52.520;13.332;2022-10-04T02:58:37;5.33;;;1.87;;
19095;SDS011;9680;52.520;13.332;2022-10-04T03:01:05;8.40;;;2.13;;
19095;SDS011;9680;52.520;13.332;2022-10-04T03:03:31;9.90;;;2.30;;
19095;SDS011;9680;52.520;13.332;2022-10-04T03:06:02;8.40;;;2.23;;
19095;SDS011;9680;52.520;13.332;2022-10-04T03:11:07;12.47;;;2.40;;
19095;SDS011;9680;52.520;13.332;2022-10-04T03:13:34;11.50;;;2.40;;
19095;SDS011;9680;52.520;13.332;2022-10-04T03:16:01;8.80;;;2.77;;
19095;SDS011;9680;52.520;13.332;2022-10-04T03:18:27;9.07;;;2.57;;
19095;SDS011;9680;52.520;13.332;2022-10-04T03:20:55;13.97;;;2.57;;
19095;SDS011;9680;52.520;13.332;2022-10-04T03:23:22;12.07;;;2.37;;
19095;SDS011;9680;52.520;13.332;2022-10-04T03:25:52;10.77;;;2.30;;
19095;SDS011;9680;52.520;13.332;2022-10-04T03:28:24;11.30;;;2.30;;
19095;SDS011;9680;52.520;13.332;2022-10-04T03:30:52;16.27;;;2.80;;
19095;SDS011;9680;52.520;13.332;2022-10-04T03:33:20;12.17;;;2.23;;
19095;SDS011;9680;52.520;13.332;2022-10-04T03:35:52;14.73;;;2.13;;
19095;SDS011;9680;52.520;13.332;2022-10-04T03:38:22;14.03;;;2.40;;
19095;SDS011;9680;52.520;13.332;2022-10-04T03:40:59;14.37;;;2.30;;
19095;SDS011;9680;52.520;13.332;2022-10-04T03:43:29;8.80;;;2.30;;
19095;SDS011;9680;52.520;13.332;2022-10-04T03:45:58;7.30;;;2.23;;
19095;SDS011;9680;52.520;13.332;2022-10-04T03:48:30;12.57;;;2.10;;
19095;SDS011;9680;52.520;13.332;2022-10-04T03:50:59;9.33;;;2.20;;
19095;SDS011;9680;52.520;13.332;2022-10-04T03:53:35;9.63;;;2.10;;
19095;SDS011;9680;52.520;13.332;2022-10-04T03:56:20;6.37;;;2.03;;
19095;SDS011;9680;52.520;13.332;2022-10-04T03:58:51;9.80;;;2.20;;
19095;SDS011;9680;52.520;13.332;2022-10-04T04:01:33;15.60;;;2.37;;
19095;SDS011;9680;52.520;13.332;2022-10-04T04:04:12;9.13;;;2.00;;
19095;SDS011;9680;52.520;13.332;2022-10-04T04:09:42;14.80;;;2.30;;
19095;SDS011;9680;52.520;13.332;2022-10-04T04:12:16;7.00;;;1.97;;
19095;SDS011;9680;52.520;13.332;2022-10-04T04:14:52;5.87;;;1.60;;
19095;SDS011;9680;52.520;13.332;2022-10-04T04:19:50;14.57;;;2.13;;
19095;SDS011;9680;52.520;13.332;2022-10-04T04:22:15;8.63;;;2.30;;
19095;SDS011;9680;52.520;13.332;2022-10-04T04:24:42;7.43;;;1.60;;
19095;SDS011;9680;52.520;13.332;2022-10-04T04:27:09;11.13;;;1.87;;
19095;SDS011;9680;52.520;13.332;2022-10-04T04:29:50;8.57;;;2.20;;
19095;SDS011;9680;52.520;13.332;2022-10-04T04:32:17;8.07;;;2.03;;
19095;SDS011;9680;52.520;13.332;2022-10-04T04:34:51;12.93;;;2.13;;
19095;SDS011;9680;52.520;13.332;2022-10-04T04:37:36;10.23;;;2.07;;
19095;SDS011;9680;52.520;13.332;2022-10-04T04:40:19;7.80;;;1.87;;
19095;SDS011;9680;52.520;13.332;2022-10-04T04:42:46;10.50;;;1.77;;
19095;SDS011;9680;52.520;13.332;2022-10-04T04:45:22;8.67;;;2.10;;
19095;SDS011;9680;52.520;13.332;2022-10-04T04:47:51;9.47;;;1.70;;
19095;SDS011;9680;52.520;13.332;2022-10-04T04:50:19;10.83;;;1.77;;
19095;SDS011;9680;52.520;13.332;2022-10-04T04:55:29;10.53;;;2.17;;
19095;SDS011;9680;52.520;13.332;2022-10-04T04:57:59;8.93;;;1.90;;
19095;SDS011;9680;52.520;13.332;2022-10-04T05:00:29;9.00;;;2.10;;
19095;SDS011;9680;52.520;13.332;2022-10-04T05:02:58;7.63;;;2.00;;
19095;SDS011;9680;52.520;13.332;2022-10-04T05:05:29;12.97;;;2.30;;
19095;SDS011;9680;52.520;13.332;2022-10-04T05:08:07;9.47;;;2.23;;
19095;SDS011;9680;52.520;13.332;2022-10-04T05:10:38;8.40;;;2.03;;
19095;SDS011;9680;52.520;13.332;2022-10-04T05:13:08;8.40;;;2.30;;
19095;SDS011;9680;52.520;13.332;2022-10-04T05:15:36;13.30;;;2.30;;
19095;SDS011;9680;52.520;13.332;2022-10-04T05:18:18;6.40;;;1.63;;
19095;SDS011;9680;52.520;13.332;2022-10-04T05:20:52;6.47;;;1.87;;
19095;SDS011;9680;52.520;13.332;2022-10-04T05:23:19;8.23;;;1.93;;
19095;SDS011;9680;52.520;13.332;2022-10-04T05:25:45;8.40;;;1.77;;
19095;SDS011;9680;52.520;13.332;2022-10-04T05:28:12;9.53;;;1.60;;
19095;SDS011;9680;52.520;13.332;2022-10-04T05:30:48;8.77;;;2.00;;
19095;SDS011;9680;52.520;13.332;2022-10-04T05:33:37;9.20;;;1.83;;
19095;SDS011;9680;52.520;13.332;2022-10-04T05:41:08;12.93;;;2.07;;
19095;SDS011;9680;52.520;13.332;2022-10-04T05:43:43;8.10;;;2.33;;
19095;SDS011;9680;52.520;13.332;2022-10-04T05:48:45;9.97;;;2.00;;
19095;SDS011;9680;52.520;13.332;2022-10-04T05:54:21;8.87;;;2.10;;
19095;SDS011;9680;52.520;13.332;2022-10-04T06:22:20;11.63;;;1.80;;
19095;SDS011;9680;52.520;13.332;2022-10-04T06:24:47;9.87;;;2.20;;
19095;SDS011;9680;52.520;13.332;2022-10-04T06:30:06;6.80;;;1.92;;
19095;SDS011;9680;52.520;13.332;2022-10-04T06:37:44;8.57;;;2.05;;
19095;SDS011;9680;52.520;13.332;2022-10-04T06:43:49;6.57;;;2.00;;
19095;SDS011;9680;52.520;13.332;2022-10-04T06:46:31;9.57;;;2.10;;
19095;SDS011;9680;52.520;13.332;2022-10-04T07:00:34;8.23;;;2.13;;
19095;SDS011;9680;52.520;13.332;2022-10-04T07:03:11;9.57;;;2.00;;
19095;SDS011;9680;52.520;13.332;2022-10-04T07:08:40;10.07;;;2.03;;
19095;SDS011;9680;52.520;13.332;2022-10-04T07:11:13;6.33;;;2.10;;
19095;SDS011;9680;52.520;13.332;2022-10-04T07:13:53;6.10;;;2.00;;
19095;SDS011;9680;52.520;13.332;2022-10-04T07:16:48;7.70;;;2.28;;
19095;SDS011;9680;52.520;13.332;2022-10-04T07:24:38;9.23;;;2.70;;
19095;SDS011;9680;52.520;13.332;2022-10-04T07:27:41;12.32;;;2.75;;
19095;SDS011;9680;52.520;13.332;2022-10-04T07:31:02;12.05;;;2.72;;
19095;SDS011;9680;52.520;13.332;2022-10-04T07:33:30;9.20;;;3.20;;
19095;SDS011;9680;52.520;13.332;2022-10-04T07:36:02;11.50;;;2.87;;
19095;SDS011;9680;52.520;13.332;2022-10-04T07:38:31;8.38;;;3.00;;
19095;SDS011;9680;52.520;13.332;2022-10-04T07:49:15;9.07;;;3.00;;
19095;SDS011;9680;52.520;13.332;2022-10-04T07:54:18;7.25;;;2.92;;
19095;SDS011;9680;52.520;13.332;2022-10-04T08:05:15;11.07;;;3.30;;
19095;SDS011;9680;52.520;13.332;2022-10-04T08:08:21;8.50;;;3.42;;
19095;SDS011;9680;52.520;13.332;2022-10-04T08:11:11;13.02;;;3.60;;
19095;SDS011;9680;52.520;13.332;2022-10-04T08:33:51;12.57;;;3.78;;
19095;SDS011;9680;52.520;13.332;2022-10-04T08:36:47;10.48;;;4.10;;
19095;SDS011;9680;52.520;13.332;2022-10-04T08:39:31;14.18;;;4.18;;
19095;SDS011;9680;52.520;13.332;2022-10-04T09:07:26;8.88;;;2.63;;
19095;SDS011;9680;52.520;13.332;2022-10-04T09:13:33;8.88;;;2.58;;
19095;SDS011;9680;52.520;13.332;2022-10-04T09:16:07;8.55;;;2.60;;
19095;SDS011;9680;52.520;13.332;2022-10-04T09:18:48;4.35;;;2.33;;
19095;SDS011;9680;52.520;13.332;2022-10-04T09:24:06;6.03;;;2.58;;
19095;SDS011;9680;52.520;13.332;2022-10-04T09:26:54;10.00;;;2.72;;
19095;SDS011;9680;52.520;13.332;2022-10-04T09:29:44;5.82;;;2.20;;
19095;SDS011;9680;52.520;13.332;2022-10-04T09:32:44;4.97;;;1.90;;
19095;SDS011;9680;52.520;13.332;2022-10-04T10:06:31;7.30;;;1.73;;
19095;SDS011;9680;52.520;13.332;2022-10-04T10:12:46;9.48;;;2.20;;
19095;SDS011;9680;52.520;13.332;2022-10-04T10:15:52;7.80;;;2.33;;
19095;SDS011;9680;52.520;13.332;2022-10-04T10:18:41;7.53;;;2.88;;
19095;SDS011;9680;52.520;13.332;2022-10-04T10:24:15;10.00;;;2.22;;
19095;SDS011;9680;52.520;13.332;2022-10-04T10:27:07;8.82;;;2.05;;
19095;SDS011;9680;52.520;13.332;2022-10-04T10:29:58;7.25;;;1.85;;
19095;SDS011;9680;52.520;13.332;2022-10-04T10:35:14;8.57;;;2.70;;
19095;SDS011;9680;52.520;13.332;2022-10-04T10:41:11;7.78;;;1.92;;
19095;SDS011;9680;52.520;13.332;2022-10-04T10:44:14;5.15;;;1.77;;
19095;SDS011;9680;52.520;13.332;2022-10-04T10:49:39;7.63;;;2.30;;
19095;SDS011;9680;52.520;13.332;2022-10-04T11:17:23;11.77;;;2.20;;
19095;SDS011;9680;52.520;13.332;2022-10-04T11:28:52;7.05;;;2.10;;
19095;SDS011;9680;52.520;13.332;2022-10-04T11:58:39;6.32;;;2.13;;
19095;SDS011;9680;52.520;13.332;2022-10-04T12:43:38;6.40;;;1.60;;
19095;SDS011;9680;52.520;13.332;2022-10-04T12:51:59;8.50;;;1.60;;
19095;SDS011;9680;52.520;13.332;2022-10-04T12:54:40;5.60;;;1.70;;
19095;SDS011;9680;52.520;13.332;2022-10-04T12:57:24;6.65;;;1.60;;
19095;SDS011;9680;52.520;13.332;2022-10-04T13:05:25;5.72;;;1.73;;
19095;SDS011;9680;52.520;13.332;2022-10-04T13:21:05;4.93;;;1.67;;
19095;SDS011;9680;52.520;13.332;2022-10-04T13:31:56;3.42;;;1.27;;
19095;SDS011;9680;52.520;13.332;2022-10-04T13:37:27;6.38;;;1.27;;
19095;SDS011;9680;52.520;13.332;2022-10-04T13:54:20;3.85;;;1.05;;
19095;SDS011;9680;52.520;13.332;2022-10-04T13:57:30;5.15;;;1.10;;
19095;SDS011;9680;52.520;13.332;2022-10-04T14:00:09;4.78;;;1.25;;
19095;SDS011;9680;52.520;13.332;2022-10-04T14:30:23;2.70;;;1.00;;
19095;SDS011;9680;52.520;13.332;2022-10-04T14:39:01;5.18;;;1.10;;
19095;SDS011;9680;52.520;13.332;2022-10-04T14:41:35;5.22;;;1.10;;
19095;SDS011;9680;52.520;13.332;2022-10-04T14:47:11;5.18;;;1.10;;
19095;SDS011;9680;52.520;13.332;2022-10-04T14:50:19;5.80;;;1.20;;
19095;SDS011;9680;52.520;13.332;2022-10-04T14:58:35;3.28;;;1.00;;
19095;SDS011;9680;52.520;13.332;2022-10-04T15:01:17;6.53;;;1.30;;
19095;SDS011;9680;52.520;13.332;2022-10-04T15:12:38;2.63;;;1.02;;
19095;SDS011;9680;52.520;13.332;2022-10-04T15:22:42;3.63;;;1.20;;
19095;SDS011;9680;52.520;13.332;2022-10-04T15:25:36;5.97;;;1.35;;
19095;SDS011;9680;52.520;13.332;2022-10-04T15:33:58;3.97;;;1.20;;
19095;SDS011;9680;52.520;13.332;2022-10-04T15:42:13;5.57;;;1.25;;
19095;SDS011;9680;52.520;13.332;2022-10-04T15:44:54;5.45;;;1.80;;
19095;SDS011;9680;52.520;13.332;2022-10-04T15:47:34;11.82;;;1.38;;
19095;SDS011;9680;52.520;13.332;2022-10-04T15:58:54;5.70;;;1.20;;
19095;SDS011;9680;52.520;13.332;2022-10-04T16:10:06;6.68;;;1.20;;
19095;SDS011;9680;52.520;13.332;2022-10-04T16:15:38;3.53;;;1.10;;
19095;SDS011;9680;52.520;13.332;2022-10-04T16:24:48;3.30;;;1.20;;
19095;SDS011;9680;52.520;13.332;2022-10-04T16:27:25;3.92;;;1.20;;
19095;SDS011;9680;52.520;13.332;2022-10-04T16:32:39;5.20;;;1.23;;
19095;SDS011;9680;52.520;13.332;2022-10-04T16:35:23;4.25;;;1.48;;
19095;SDS011;9680;52.520;13.332;2022-10-04T16:41:05;8.30;;;1.30;;
19095;SDS011;9680;52.520;13.332;2022-10-04T16:43:46;4.65;;;1.30;;
19095;SDS011;9680;52.520;13.332;2022-10-04T16:46:18;2.55;;;1.60;;
19095;SDS011;9680;52.520;13.332;2022-10-04T16:49:01;3.60;;;1.50;;
19095;SDS011;9680;52.520;13.332;2022-10-04T16:51:50;6.50;;;1.70;;
19095;SDS011;9680;52.520;13.332;2022-10-04T16:54:47;7.97;;;2.15;;
19095;SDS011;9680;52.520;13.332;2022-10-04T16:57:25;3.25;;;1.60;;
19095;SDS011;9680;52.520;13.332;2022-10-04T16:59:58;5.45;;;1.67;;
19095;SDS011;9680;52.520;13.332;2022-10-04T17:02:57;6.82;;;1.73;;
19095;SDS011;9680;52.520;13.332;2022-10-04T17:13:35;8.80;;;2.05;;
19095;SDS011;9680;52.520;13.332;2022-10-04T17:16:28;4.93;;;1.70;;
19095;SDS011;9680;52.520;13.332;2022-10-04T17:22:03;4.72;;;1.98;;
19095;SDS011;9680;52.520;13.332;2022-10-04T17:27:25;4.00;;;2.10;;
19095;SDS011;9680;52.520;13.332;2022-10-04T17:41:26;4.78;;;1.80;;
19095;SDS011;9680;52.520;13.332;2022-10-04T17:44:13;6.65;;;2.00;;
19095;SDS011;9680;52.520;13.332;2022-10-04T17:46:56;6.25;;;2.30;;
19095;SDS011;9680;52.520;13.332;2022-10-04T17:52:53;7.82;;;2.50;;
19095;SDS011;9680;52.520;13.332;2022-10-04T17:55:53;5.82;;;2.47;;
19095;SDS011;9680;52.520;13.332;2022-10-04T17:58:25;5.55;;;2.38;;
19095;SDS011;9680;52.520;13.332;2022-10-04T18:09:26;5.72;;;2.65;;
19095;SDS011;9680;52.520;13.332;2022-10-04T18:12:32;10.45;;;3.00;;
19095;SDS011;9680;52.520;13.332;2022-10-04T18:15:19;8.73;;;3.22;;
19095;SDS011;9680;52.520;13.332;2022-10-04T18:26:15;6.22;;;2.72;;
19095;SDS011;9680;52.520;13.332;2022-10-04T18:28:48;10.75;;;2.80;;
19095;SDS011;9680;52.520;13.332;2022-10-04T18:31:29;7.90;;;3.20;;
19095;SDS011;9680;52.520;13.332;2022-10-04T18:39:51;6.32;;;2.70;;
19095;SDS011;9680;52.520;13.332;2022-10-04T18:42:21;7.63;;;3.10;;
19095;SDS011;9680;52.520;13.332;2022-10-04T18:44:59;8.18;;;3.33;;
19095;SDS011;9680;52.520;13.332;2022-10-04T18:50:15;9.40;;;3.28;;
19095;SDS011;9680;52.520;13.332;2022-10-04T18:58:03;9.75;;;3.30;;
19095;SDS011;9680;52.520;13.332;2022-10-04T19:01:17;8.20;;;2.80;;
19095;SDS011;9680;52.520;13.332;2022-10-04T19:04:25;6.93;;;2.83;;
19095;SDS011;9680;52.520;13.332;2022-10-04T19:07:13;6.23;;;2.70;;
19095;SDS011;9680;52.520;13.332;2022-10-04T19:09:55;7.60;;;2.97;;
19095;SDS011;9680;52.520;13.332;2022-10-04T19:27:09;9.60;;;3.23;;
19095;SDS011;9680;52.520;13.332;2022-10-04T19:41:00;8.50;;;3.40;;
19095;SDS011;9680;52.520;13.332;2022-10-04T19:46:54;13.80;;;3.20;;
19095;SDS011;9680;52.520;13.332;2022-10-04T19:49:33;8.30;;;3.00;;
19095;SDS011;9680;52.520;13.332;2022-10-04T19:55:30;8.07;;;3.20;;
19095;SDS011;9680;52.520;13.332;2022-10-04T20:00:58;8.20;;;3.33;;
19095;SDS011;9680;52.520;13.332;2022-10-04T20:03:24;6.00;;;3.03;;
19095;SDS011;9680;52.520;13.332;2022-10-04T20:05:51;8.27;;;3.30;;
19095;SDS011;9680;52.520;13.332;2022-10-04T20:13:43;6.43;;;3.22;;
19095;SDS011;9680;52.520;13.332;2022-10-04T20:16:08;6.57;;;3.33;;
19095;SDS011;9680;52.520;13.332;2022-10-04T20:21:06;7.00;;;3.10;;
19095;SDS011;9680;52.520;13.332;2022-10-04T20:30:57;8.87;;;3.50;;
19095;SDS011;9680;52.520;13.332;2022-10-04T20:38:43;11.20;;;3.40;;
19095;SDS011;9680;52.520;13.332;2022-10-04T20:43:57;8.00;;;3.03;;
19095;SDS011;9680;52.520;13.332;2022-10-04T20:46:27;7.90;;;3.53;;
19095;SDS011;9680;52.520;13.332;2022-10-04T20:48:59;11.10;;;3.40;;
19095;SDS011;9680;52.520;13.332;2022-10-04T20:51:26;9.27;;;3.73;;
19095;SDS011;9680;52.520;13.332;2022-10-04T20:53:54;7.00;;;2.97;;
19095;SDS011;9680;52.520;13.332;2022-10-04T20:58:55;6.37;;;3.10;;
19095;SDS011;9680;52.520;13.332;2022-10-04T21:01:33;6.90;;;3.70;;
19095;SDS011;9680;52.520;13.332;2022-10-04T21:07:00;5.90;;;3.00;;
19095;SDS011;9680;52.520;13.332;2022-10-04T21:09:30;6.80;;;3.20;;
19095;SDS011;9680;52.520;13.332;2022-10-04T21:11:57;7.07;;;3.13;;
19095;SDS011;9680;52.520;13.332;2022-10-04T21:14:24;6.33;;;2.70;;
19095;SDS011;9680;52.520;13.332;2022-10-04T21:16:57;8.70;;;2.80;;
19095;SDS011;9680;52.520;13.332;2022-10-04T21:27:11;11.77;;;3.33;;
19095;SDS011;9680;52.520;13.332;2022-10-04T21:29:48;7.57;;;2.75;;
19095;SDS011;9680;52.520;13.332;2022-10-04T21:32:17;7.33;;;2.93;;
19095;SDS011;9680;52.520;13.332;2022-10-04T21:34:43;5.55;;;2.53;;
19095;SDS011;9680;52.520;13.332;2022-10-04T21:37:09;6.50;;;2.92;;
19095;SDS011;9680;52.520;13.332;2022-10-04T21:39:34;4.70;;;2.60;;
19095;SDS011;9680;52.520;13.332;2022-10-04T21:41:59;7.20;;;2.70;;
19095;SDS011;9680;52.520;13.332;2022-10-04T21:44:25;6.07;;;3.28;;
19095;SDS011;9680;52.520;13.332;2022-10-04T21:46:50;7.43;;;2.80;;
19095;SDS011;9680;52.520;13.332;2022-10-04T21:49:16;5.93;;;2.70;;
19095;SDS011;9680;52.520;13.332;2022-10-04T21:51:41;8.38;;;2.80;;
19095;SDS011;9680;52.520;13.332;2022-10-04T21:54:07;7.40;;;2.80;;
19095;SDS011;9680;52.520;13.332;2022-10-04T21:56:32;7.40;;;2.90;;
19095;SDS011;9680;52.520;13.332;2022-10-04T21:58:58;7.03;;;2.80;;
19095;SDS011;9680;52.520;13.332;2022-10-04T22:01:23;4.63;;;2.70;;
19095;SDS011;9680;52.520;13.332;2022-10-04T22:03:49;5.68;;;2.67;;
19095;SDS011;9680;52.520;13.332;2022-10-04T22:06:15;11.43;;;2.80;;
19095;SDS011;9680;52.520;13.332;2022-10-04T22:08:41;8.90;;;2.93;;
19095;SDS011;9680;52.520;13.332;2022-10-04T22:11:09;5.07;;;2.70;;
19095;SDS011;9680;52.520;13.332;2022-10-04T22:13:35;5.83;;;2.47;;
19095;SDS011;9680;52.520;13.332;2022-10-04T22:16:01;5.65;;;2.53;;
19095;SDS011;9680;52.520;13.332;2022-10-04T22:18:28;8.40;;;2.67;;
19095;SDS011;9680;52.520;13.332;2022-10-04T22:20:54;6.30;;;2.80;;
19095;SDS011;9680;52.520;13.332;2022-10-04T22:23:20;7.47;;;2.87;;
19095;SDS011;9680;52.520;13.332;2022-10-04T22:25:48;8.10;;;3.23;;
19095;SDS011;9680;52.520;13.332;2022-10-04T22:28:26;9.13;;;2.93;;
19095;SDS011;9680;52.520;13.332;2022-10-04T22:30:54;7.50;;;3.03;;
19095;SDS011;9680;52.520;13.332;2022-10-04T22:36:17;7.03;;;3.13;;
19095;SDS011;9680;52.520;13.332;2022-10-04T22:39:29;7.73;;;3.00;;
19095;SDS011;9680;52.520;13.332;2022-10-04T22:41:39;9.80;;;2.47;;
19095;SDS011;9680;52.520;13.332;2022-10-04T22:44:18;7.43;;;2.73;;
19095;SDS011;9680;52.520;13.332;2022-10-04T22:46:52;7.33;;;2.80;;
19095;SDS011;9680;52.520;13.332;2022-10-04T22:49:21;5.70;;;2.87;;
19095;SDS011;9680;52.520;13.332;2022-10-04T22:51:49;4.60;;;2.77;;
19095;SDS011;9680;52.520;13.332;2022-10-04T22:54:18;6.07;;;2.90;;
19095;SDS011;9680;52.520;13.332;2022-10-04T22:56:48;6.47;;;2.90;;
19095;SDS011;9680;52.520;13.332;2022-10-04T22:59:16;5.73;;;2.80;;
19095;SDS011;9680;52.520;13.332;2022-10-04T23:01:46;6.40;;;2.90;;
19095;SDS011;9680;52.520;13.332;2022-10-04T23:04:17;7.93;;;3.00;;
19095;SDS011;9680;52.520;13.332;2022-10-04T23:06:47;5.93;;;2.60;;
19095;SDS011;9680;52.520;13.332;2022-10-04T23:09:13;9.03;;;3.00;;
19095;SDS011;9680;52.520;13.332;2022-10-04T23:11:38;7.23;;;2.80;;
19095;SDS011;9680;52.520;13.332;2022-10-04T23:14:04;7.07;;;2.60;;
19095;SDS011;9680;52.520;13.332;2022-10-04T23:16:29;6.30;;;2.67;;
19095;SDS011;9680;52.520;13.332;2022-10-04T23:18:59;6.30;;;2.93;;
19095;SDS011;9680;52.520;13.332;2022-10-04T23:21:32;7.90;;;2.70;;
19095;SDS011;9680;52.520;13.332;2022-10-04T23:24:00;4.87;;;2.73;;
19095;SDS011;9680;52.520;13.332;2022-10-04T23:26:38;8.83;;;2.90;;
19095;SDS011;9680;52.520;13.332;2022-10-04T23:29:06;6.60;;;2.90;;
19095;SDS011;9680;52.520;13.332;2022-10-04T23:31:47;7.97;;;2.93;;
19095;SDS011;9680;52.520;13.332;2022-10-04T23:34:32;9.33;;;3.00;;
19095;SDS011;9680;52.520;13.332;2022-10-04T23:37:00;6.60;;;2.70;;
19095;SDS011;9680;52.520;13.332;2022-10-04T23:39:27;5.13;;;2.60;;
19095;SDS011;9680;52.520;13.332;2022-10-04T23:41:56;6.67;;;2.93;;
19095;SDS011;9680;52.520;13.332;2022-10-04T23:44:28;7.00;;;3.10;;
19095;SDS011;9680;52.520;13.332;2022-10-04T23:47:00;6.27;;;2.70;;
19095;SDS011;9680;52.520;13.332;2022-10-04T23:49:26;6.53;;;2.60;;
19095;SDS011;9680;52.520;13.332;2022-10-04T23:51:56;7.13;;;2.80;;
19095;SDS011;9680;52.520;13.332;2022-10-04T23:54:25;5.38;;;3.10;;
19095;SDS011;9680;52.520;13.332;2022-10-04T23:56:51;6.80;;;2.93;;
19095;SDS011;9680;52.520;13.332;2022-10-04T23:59:18;6.17;;;2.90;;
